Wladyslaw Orkan — 9HA4539 — position and weather

sailwx.info

Track history (hours):
 
Tides and Currents Weather Stations Pressure Air Temp Water Temp Dewpoint Dewpoint Depression Visibility Wind Speed Wind Dir Waves Ship Positions

Wladyslaw Orkan

Last reported at 2017-Dec-10 00:57 UTC. Time now 2017-Dec-16 01:31 UTC.
Position N 01°15' E 104°05'.

Length 200 m; draft 7.9 m.

Type: Ship. MMSI: 248160000.

Date/timePositionNaut miles runAvg speedWind from/ knotsBaromVisibWave heightAir tempDewpointWater temp
2017-Dec-10 00:57N 01°15' E 104°05'612.4
2017-Dec-10 00:29N 01°14' E 103°60'611.9
2017-Dec-10 00:00N 01°14' E 103°54'2 2.8
2017-Dec-09 23:28N 01°15' E 103°53'0 0.1
2017-Dec-09 23:00N 01°15' E 103°53'0 0.0
2017-Dec-09 22:30N 01°15' E 103°53'0 0.0
2017-Dec-09 22:00N 01°15' E 103°53'0 0.0
2017-Dec-09 21:30N 01°15' E 103°53'0 0.0
2017-Dec-09 20:59N 01°15' E 103°53'0 0.0
2017-Dec-09 20:29N 01°15' E 103°53'0 0.0
2017-Dec-09 19:53N 01°15' E 103°53'0 0.0
2017-Dec-09 19:23N 01°15' E 103°53'0 0.0
2017-Dec-09 18:47N 01°15' E 103°53'0 0.0
2017-Dec-09 18:28N 01°15' E 103°53'0 0.0
2017-Dec-09 17:58N 01°15' E 103°53'0 0.0
2017-Dec-09 17:28N 01°15' E 103°53'0 0.0
2017-Dec-09 16:58N 01°15' E 103°53'0 0.0
2017-Dec-09 16:21N 01°15' E 103°53'0 0.0
2017-Dec-09 15:57N 01°15' E 103°53'0 0.0
2017-Dec-09 15:27N 01°15' E 103°53'0 0.0
2017-Dec-09 14:57N 01°15' E 103°53'0 0.0
2017-Dec-09 14:30N 01°15' E 103°53'0 0.0
2017-Dec-09 13:59N 01°15' E 103°53'0 0.0
2017-Dec-09 13:29N 01°15' E 103°53'0 0.1
2017-Dec-09 12:56N 01°15' E 103°53'0 0.0
2017-Dec-09 12:26N 01°15' E 103°53'0 0.0
2017-Dec-09 11:59N 01°15' E 103°53'0 0.6
2017-Dec-09 11:30N 01°15' E 103°53'2 4.3
2017-Dec-09 11:00N 01°14' E 103°55'4 8.6
2017-Dec-09 10:30N 01°15' E 103°59'  
2017-Dec-04 09:48S 07°12' E 112°44'0 0.0
2017-Dec-04 09:15S 07°12' E 112°44'0 0.0
2017-Dec-04 08:42S 07°12' E 112°44'0 0.0
2017-Dec-04 08:30S 07°12' E 112°44'0 0.0
2017-Dec-04 07:14S 07°12' E 112°44'0 0.0
2017-Dec-04 05:22S 07°12' E 112°44'0 0.0
2017-Dec-04 04:28S 07°12' E 112°44'0 0.0
2017-Dec-04 03:45S 07°12' E 112°44'0 0.0
2017-Dec-04 03:15S 07°12' E 112°44'0 0.0
2017-Dec-04 02:39S 07°12' E 112°44'0 0.0
2017-Dec-03 23:32S 07°12' E 112°44'0 0.0
2017-Dec-03 20:30S 07°12' E 112°44'0 0.0
2017-Dec-03 19:39S 07°12' E 112°44'0 0.0
2017-Dec-03 18:42S 07°12' E 112°44'0 0.0
2017-Dec-03 18:26S 07°12' E 112°44'0 0.0
2017-Dec-03 18:00S 07°12' E 112°44'1 1.8
2017-Dec-03 17:30S 07°12' E 112°43'3 6.0
2017-Dec-03 17:00S 07°10' E 112°40'5 9.3
2017-Dec-03 16:28S 07°05' E 112°40'4 9.5
2017-Dec-03 16:00S 07°01' E 112°41'12 7.8
2017-Dec-03 14:25S 06°49' E 112°46'1 0.1
2017-Dec-03 09:31S 06°50' E 112°47'0 0.0
2017-Dec-03 05:26S 06°50' E 112°47'0 0.0
2017-Dec-03 00:36S 06°50' E 112°47'0 0.0
2017-Dec-02 07:17S 06°50' E 112°47'0 0.0
2017-Dec-02 04:52S 06°50' E 112°47'0 0.0
2017-Dec-02 04:21S 06°50' E 112°47'0 0.0
2017-Dec-02 02:45S 06°50' E 112°47'0 0.0
2017-Dec-02 00:38S 06°50' E 112°47'0 0.0
2017-Dec-01 19:27S 06°50' E 112°47'0 0.0
2017-Dec-01 15:28S 06°50' E 112°47'0 0.0
2017-Dec-01 14:49S 06°50' E 112°47'0 0.0
2017-Dec-01 14:30S 06°50' E 112°47'0 0.0
2017-Dec-01 13:24S 06°50' E 112°47'0 0.0
2017-Dec-01 10:50S 06°50' E 112°47'0 0.0
2017-Dec-01 08:25S 06°50' E 112°47'0 0.0
2017-Dec-01 07:49S 06°50' E 112°47'0 0.0
2017-Dec-01 05:18S 06°50' E 112°47'0 0.0
2017-Dec-01 04:56S 06°50' E 112°47'0 0.0
2017-Dec-01 03:20S 06°50' E 112°47'0 0.0
2017-Nov-30 23:36S 06°50' E 112°47'0 0.0
2017-Nov-30 23:24S 06°50' E 112°47'  
Track history (hours):
 
Tides and Currents Weather Stations Pressure Air Temp Water Temp Dewpoint Dewpoint Depression Visibility Wind Speed Wind Dir Waves Ship Positions

Wladyslaw Orkan

Last reported at 2017-Dec-10 00:57 UTC. Time now 2017-Dec-16 01:31 UTC.
Position N 01°15' E 104°05'.

Length 200 m; draft 7.9 m.

Type: Ship. MMSI: 248160000.

Date/timePositionNaut miles runAvg speedWind from/ knotsBaromVisibWave heightAir tempDewpointWater temp
2017-Dec-10 00:57N 01°15' E 104°05'612.4
2017-Dec-10 00:29N 01°14' E 103°60'611.9
2017-Dec-10 00:00N 01°14' E 103°54'2 2.8
2017-Dec-09 23:28N 01°15' E 103°53'0 0.1
2017-Dec-09 23:00N 01°15' E 103°53'0 0.0
2017-Dec-09 22:30N 01°15' E 103°53'0 0.0
2017-Dec-09 22:00N 01°15' E 103°53'0 0.0
2017-Dec-09 21:30N 01°15' E 103°53'0 0.0
2017-Dec-09 20:59N 01°15' E 103°53'0 0.0
2017-Dec-09 20:29N 01°15' E 103°53'0 0.0
2017-Dec-09 19:53N 01°15' E 103°53'0 0.0
2017-Dec-09 19:23N 01°15' E 103°53'0 0.0
2017-Dec-09 18:47N 01°15' E 103°53'0 0.0
2017-Dec-09 18:28N 01°15' E 103°53'0 0.0
2017-Dec-09 17:58N 01°15' E 103°53'0 0.0
2017-Dec-09 17:28N 01°15' E 103°53'0 0.0
2017-Dec-09 16:58N 01°15' E 103°53'0 0.0
2017-Dec-09 16:21N 01°15' E 103°53'0 0.0
2017-Dec-09 15:57N 01°15' E 103°53'0 0.0
2017-Dec-09 15:27N 01°15' E 103°53'0 0.0
2017-Dec-09 14:57N 01°15' E 103°53'0 0.0
2017-Dec-09 14:30N 01°15' E 103°53'0 0.0
2017-Dec-09 13:59N 01°15' E 103°53'0 0.0
2017-Dec-09 13:29N 01°15' E 103°53'0 0.1
2017-Dec-09 12:56N 01°15' E 103°53'0 0.0
2017-Dec-09 12:26N 01°15' E 103°53'0 0.0
2017-Dec-09 11:59N 01°15' E 103°53'0 0.6
2017-Dec-09 11:30N 01°15' E 103°53'2 4.3
2017-Dec-09 11:00N 01°14' E 103°55'4 8.6
2017-Dec-09 10:30N 01°15' E 103°59'  
2017-Dec-04 09:48S 07°12' E 112°44'0 0.0
2017-Dec-04 09:15S 07°12' E 112°44'0 0.0
2017-Dec-04 08:42S 07°12' E 112°44'0 0.0
2017-Dec-04 08:30S 07°12' E 112°44'0 0.0
2017-Dec-04 07:14S 07°12' E 112°44'0 0.0
2017-Dec-04 05:22S 07°12' E 112°44'0 0.0
2017-Dec-04 04:28S 07°12' E 112°44'0 0.0
2017-Dec-04 03:45S 07°12' E 112°44'0 0.0
2017-Dec-04 03:15S 07°12' E 112°44'0 0.0
2017-Dec-04 02:39S 07°12' E 112°44'0 0.0
2017-Dec-03 23:32S 07°12' E 112°44'0 0.0
2017-Dec-03 20:30S 07°12' E 112°44'0 0.0
2017-Dec-03 19:39S 07°12' E 112°44'0 0.0
2017-Dec-03 18:42S 07°12' E 112°44'0 0.0
2017-Dec-03 18:26S 07°12' E 112°44'0 0.0
2017-Dec-03 18:00S 07°12' E 112°44'1 1.8
2017-Dec-03 17:30S 07°12' E 112°43'3 6.0
2017-Dec-03 17:00S 07°10' E 112°40'5 9.3
2017-Dec-03 16:28S 07°05' E 112°40'4 9.5
2017-Dec-03 16:00S 07°01' E 112°41'12 7.8
2017-Dec-03 14:25S 06°49' E 112°46'1 0.1
2017-Dec-03 09:31S 06°50' E 112°47'0 0.0
2017-Dec-03 05:26S 06°50' E 112°47'0 0.0
2017-Dec-03 00:36S 06°50' E 112°47'0 0.0
2017-Dec-02 07:17S 06°50' E 112°47'0 0.0
2017-Dec-02 04:52S 06°50' E 112°47'0 0.0
2017-Dec-02 04:21S 06°50' E 112°47'0 0.0
2017-Dec-02 02:45S 06°50' E 112°47'0 0.0
2017-Dec-02 00:38S 06°50' E 112°47'0 0.0
2017-Dec-01 19:27S 06°50' E 112°47'0 0.0
2017-Dec-01 15:28S 06°50' E 112°47'0 0.0
2017-Dec-01 14:49S 06°50' E 112°47'0 0.0
2017-Dec-01 14:30S 06°50' E 112°47'0 0.0
2017-Dec-01 13:24S 06°50' E 112°47'0 0.0
2017-Dec-01 10:50S 06°50' E 112°47'0 0.0
2017-Dec-01 08:25S 06°50' E 112°47'0 0.0
2017-Dec-01 07:49S 06°50' E 112°47'0 0.0
2017-Dec-01 05:18S 06°50' E 112°47'0 0.0
2017-Dec-01 04:56S 06°50' E 112°47'0 0.0
2017-Dec-01 03:20S 06°50' E 112°47'0 0.0
2017-Nov-30 23:36S 06°50' E 112°47'0 0.0
2017-Nov-30 23:24S 06°50' E 112°47'  

Dump ship's entire track history